Time;durP1;ratioP1;P1;durP2;ratioP2;P2;SDS_P1;SDS_P2;PMS_P1;PMS_P2;Temp;Humidity;BMP_temperature;BMP_pressure;BME280_temperature;BME280_humidity;BME280_pressure;Samples;Min_cycle;Max_cycle;Signal;HPM_P1;HPM_P2
2024/02/27 00:02:29;;;;;;;4.38;2.58;;;13.80;74.70;;;;;;4196636;28;20064;-43
2024/02/27 00:05:10;;;;;;;3.40;2.22;;;13.90;74.90;;;;;;4193482;28;20051;-49
2024/02/27 00:07:51;;;;;;;2.40;2.20;;;14.00;75.30;;;;;;4219813;28;20058;-46
2024/02/27 00:10:32;;;;;;;2.38;2.08;;;14.00;74.60;;;;;;4219923;27;20404;-47
2024/02/27 00:13:14;;;;;;;2.78;1.85;;;14.00;74.80;;;;;;4192102;28;20048;-48
2024/02/27 00:15:55;;;;;;;3.45;2.53;;;14.10;74.60;;;;;;4212651;27;20095;-46
2024/02/27 00:18:36;;;;;;;3.05;2.50;;;14.10;74.90;;;;;;4210350;27;20404;-47
2024/02/27 00:21:17;;;;;;;2.60;2.40;;;14.10;74.90;;;;;;4218792;28;20448;-47
2024/02/27 00:23:58;;;;;;;3.80;2.70;;;14.10;74.90;;;;;;4221130;27;20143;-49
2024/02/27 00:26:40;;;;;;;2.90;2.20;;;14.20;74.80;;;;;;4189592;28;20385;-47
2024/02/27 00:29:22;;;;;;;5.27;2.60;;;14.30;75.30;;;;;;4194559;28;20516;-46
2024/02/27 00:32:03;;;;;;;5.22;2.60;;;14.40;74.80;;;;;;4194352;28;20328;-42
2024/02/27 00:34:44;;;;;;;3.08;2.28;;;14.40;74.70;;;;;;4220010;28;20880;-43
2024/02/27 00:37:25;;;;;;;3.85;2.70;;;14.50;75.80;;;;;;4218419;27;20055;-42
2024/02/27 00:40:08;;;;;;;4.55;2.60;;;14.50;75.00;;;;;;4215315;27;20080;-43
2024/02/27 00:42:49;;;;;;;5.22;2.97;;;14.50;74.90;;;;;;4205409;28;20055;-43
2024/02/27 00:45:31;;;;;;;3.42;2.60;;;14.50;74.80;;;;;;4220873;28;20058;-43
2024/02/27 00:48:12;;;;;;;6.00;2.97;;;14.50;75.00;;;;;;4220914;27;20050;-43
2024/02/27 00:50:53;;;;;;;4.72;3.38;;;14.50;75.00;;;;;;4202513;28;20216;-47
2024/02/27 00:53:34;;;;;;;3.90;3.10;;;14.60;74.80;;;;;;4219584;28;20054;-48
2024/02/27 00:56:15;;;;;;;6.00;3.08;;;14.60;74.80;;;;;;4237851;27;20049;-47
2024/02/27 00:58:56;;;;;;;5.72;3.65;;;14.60;74.50;;;;;;4236431;27;20054;-47
2024/02/27 01:01:39;;;;;;;6.32;3.60;;;14.60;74.30;;;;;;4187730;28;20051;-49
2024/02/27 01:04:19;;;;;;;3.47;3.17;;;14.60;74.10;;;;;;4205545;28;20452;-48
2024/02/27 01:07:01;;;;;;;5.88;3.63;;;14.60;74.30;;;;;;4236874;27;20042;-48
2024/02/27 01:09:41;;;;;;;7.28;4.03;;;14.60;74.00;;;;;;4237314;27;20087;-48
2024/02/27 01:12:22;;;;;;;5.15;3.17;;;14.60;74.30;;;;;;4237663;27;20054;-48
2024/02/27 01:15:04;;;;;;;3.47;3.10;;;14.60;74.70;;;;;;4236954;27;20058;-48
2024/02/27 01:17:46;;;;;;;4.85;3.50;;;14.60;74.30;;;;;;4203461;28;20360;-48
2024/02/27 01:20:27;;;;;;;6.28;4.00;;;14.60;74.70;;;;;;4203572;28;20562;-47
2024/02/27 01:23:08;;;;;;;9.23;3.60;;;14.60;74.90;;;;;;4203890;28;20380;-46
2024/02/27 01:25:50;;;;;;;4.90;3.80;;;14.60;74.70;;;;;;4218452;27;20043;-46
2024/02/27 01:28:31;;;;;;;6.85;4.25;;;14.60;74.90;;;;;;4191251;28;20130;-47
2024/02/27 01:31:12;;;;;;;4.78;3.90;;;14.70;74.90;;;;;;4192687;28;20055;-47
2024/02/27 01:33:54;;;;;;;5.95;4.22;;;14.80;74.60;;;;;;4187652;28;20106;-47
2024/02/27 01:36:35;;;;;;;5.30;3.85;;;14.80;74.50;;;;;;4188402;28;20047;-47
2024/02/27 01:39:16;;;;;;;6.97;3.30;;;14.80;74.30;;;;;;4186351;28;20405;-48
2024/02/27 01:41:57;;;;;;;9.35;4.70;;;14.80;74.50;;;;;;4186388;28;20059;-47
2024/02/27 01:44:41;;;;;;;7.40;4.43;;;14.80;74.40;;;;;;4206387;28;20112;-47
2024/02/27 01:47:22;;;;;;;6.50;4.70;;;14.80;74.80;;;;;;4215923;28;20132;-46
2024/02/27 01:50:06;;;;;;;8.43;4.55;;;14.90;74.20;;;;;;4203480;28;20051;-47
2024/02/27 01:52:47;;;;;;;5.50;4.30;;;14.90;74.00;;;;;;4203335;28;20502;-43
2024/02/27 01:55:29;;;;;;;7.82;4.60;;;15.00;73.10;;;;;;4213634;28;20050;-43
2024/02/27 01:58:11;;;;;;;6.78;4.20;;;15.00;73.70;;;;;;4191261;28;20047;-43
2024/02/27 02:00:53;;;;;;;9.38;5.03;;;15.00;73.90;;;;;;4186848;28;20091;-44
2024/02/27 02:03:36;;;;;;;;;;;15.00;73.90;;;;;;4192204;28;20055;-43
2024/02/27 02:06:20;;;;;;;5.32;4.35;;;15.10;73.80;;;;;;4194241;28;19931;-43
2024/02/27 02:09:01;;;;;;;7.53;4.80;;;15.10;73.70;;;;;;4219955;27;20556;-43
2024/02/27 02:11:42;;;;;;;5.00;4.28;;;15.10;73.40;;;;;;4206286;28;20127;-42
2024/02/27 02:14:23;;;;;;;8.93;5.32;;;15.10;73.50;;;;;;4207404;28;20067;-43
2024/02/27 02:17:04;;;;;;;7.80;5.45;;;15.10;73.80;;;;;;4216428;27;20047;-44
2024/02/27 02:19:45;;;;;;;11.05;5.25;;;15.00;73.90;;;;;;4222850;27;20524;-44
2024/02/27 02:22:28;;;;;;;7.18;5.25;;;15.00;74.20;;;;;;4222916;28;20203;-44
2024/02/27 02:25:11;;;;;;;7.03;5.13;;;14.90;74.30;;;;;;4214508;27;20059;-44
2024/02/27 02:27:53;;;;;;;5.82;5.18;;;14.90;74.20;;;;;;4210382;28;20054;-44
2024/02/27 02:30:34;;;;;;;7.00;5.57;;;14.90;74.30;;;;;;4212001;28;20606;-44
2024/02/27 02:33:15;;;;;;;11.50;5.65;;;14.90;74.30;;;;;;4223243;28;20054;-44
2024/02/27 02:35:56;;;;;;;6.15;4.72;;;15.00;74.60;;;;;;4222577;27;20424;-43
2024/02/27 02:38:39;;;;;;;9.23;5.25;;;15.00;74.30;;;;;;4222740;27;20074;-44
2024/02/27 02:41:19;;;;;;;7.85;4.97;;;15.00;74.20;;;;;;4217557;27;20136;-45
2024/02/27 02:44:00;;;;;;;6.43;5.45;;;15.00;74.20;;;;;;4221493;28;20561;-46
2024/02/27 02:46:44;;;;;;;7.88;5.28;;;15.20;73.70;;;;;;4203391;28;20337;-48
2024/02/27 02:49:25;;;;;;;7.93;5.45;;;15.20;73.50;;;;;;4206329;27;20071;-45
2024/02/27 02:52:06;;;;;;;5.97;5.10;;;15.30;73.30;;;;;;4208687;28;20067;-46
2024/02/27 02:54:48;;;;;;;;;;;15.40;73.10;;;;;;4222834;27;20511;-45
2024/02/27 02:57:29;;;;;;;7.43;5.35;;;15.40;73.10;;;;;;4214622;27;20752;-44
2024/02/27 03:00:11;;;;;;;6.80;4.97;;;15.40;73.30;;;;;;4211551;27;20067;-46
2024/02/27 03:02:53;;;;;;;10.38;5.30;;;15.40;73.30;;;;;;4191986;28;20055;-48
2024/02/27 03:05:34;;;;;;;7.97;5.07;;;15.40;73.20;;;;;;4213463;27;20126;-44
2024/02/27 03:08:15;;;;;;;6.20;4.93;;;15.40;73.30;;;;;;4189853;28;20459;-44
2024/02/27 03:10:58;;;;;;;6.70;4.80;;;15.50;73.20;;;;;;4189468;28;20158;-42
2024/02/27 03:13:39;;;;;;;8.13;4.72;;;15.50;72.90;;;;;;4205184;28;20606;-45
2024/02/27 03:16:20;;;;;;;6.72;4.30;;;15.50;73.00;;;;;;4197093;28;20051;-43
2024/02/27 03:19:02;;;;;;;5.88;4.65;;;15.40;72.90;;;;;;4205200;28;20050;-44
2024/02/27 03:21:43;;;;;;;6.63;4.57;;;15.40;73.40;;;;;;4205651;28;20511;-46
2024/02/27 03:24:24;;;;;;;8.10;4.55;;;15.40;73.00;;;;;;4198551;27;20178;-44
2024/02/27 03:27:07;;;;;;;5.93;4.22;;;15.40;73.20;;;;;;4190483;28;20097;-43
2024/02/27 03:29:48;;;;;;;7.88;4.43;;;15.30;73.00;;;;;;4192596;28;20055;-43
2024/02/27 03:32:29;;;;;;;6.85;4.30;;;15.30;73.50;;;;;;4205450;28;20062;-43
2024/02/27 03:35:10;;;;;;;5.22;3.70;;;15.20;73.90;;;;;;4215100;27;20047;-47
2024/02/27 03:37:54;;;;;;;6.18;4.03;;;15.20;73.90;;;;;;4220709;27;20244;-44
2024/02/27 03:40:34;;;;;;;4.75;3.75;;;15.20;74.00;;;;;;4204262;28;20189;-47
2024/02/27 03:43:17;;;;;;;7.97;4.05;;;15.20;74.10;;;;;;4190290;28;20105;-49
2024/02/27 03:45:58;;;;;;;4.43;3.40;;;15.30;73.90;;;;;;4204080;28;20090;-48
2024/02/27 03:48:39;;;;;;;4.75;3.97;;;15.40;74.00;;;;;;4214967;28;20182;-47
2024/02/27 03:51:20;;;;;;;4.82;3.78;;;15.40;73.50;;;;;;4208926;27;20050;-48
2024/02/27 03:54:01;;;;;;;5.35;3.60;;;15.40;74.30;;;;;;4206207;28;20128;-48
2024/02/27 03:56:42;;;;;;;7.03;3.83;;;15.40;73.70;;;;;;4188261;28;20142;-47
2024/02/27 03:59:25;;;;;;;6.47;3.75;;;15.30;73.80;;;;;;4199473;28;20089;-43
2024/02/27 04:02:06;;;;;;;6.65;4.18;;;15.30;74.00;;;;;;4208273;27;20174;-44
2024/02/27 04:04:47;;;;;;;4.90;3.38;;;15.30;74.40;;;;;;4203156;27;20480;-43
2024/02/27 04:07:28;;;;;;;6.30;3.70;;;15.30;75.20;;;;;;4191243;28;20075;-43
2024/02/27 04:10:10;;;;;;;4.63;3.15;;;15.40;74.30;;;;;;4206529;27;20185;-43
2024/02/27 04:12:51;;;;;;;7.18;3.90;;;15.50;74.00;;;;;;4220391;27;20247;-44
2024/02/27 04:15:33;;;;;;;6.53;3.10;;;15.50;73.90;;;;;;4215447;27;20221;-45
2024/02/27 04:18:14;;;;;;;7.10;3.45;;;15.50;73.60;;;;;;4217383;27;20092;-44
2024/02/27 04:20:55;;;;;;;5.85;3.08;;;15.50;73.50;;;;;;4195171;28;20050;-44
2024/02/27 04:23:36;;;;;;;4.45;3.17;;;15.50;74.60;;;;;;4204998;28;20090;-42
2024/02/27 04:26:17;;;;;;;4.20;3.20;;;15.50;73.50;;;;;;4203327;28;20059;-44
2024/02/27 04:28:58;;;;;;;3.85;3.28;;;15.60;73.60;;;;;;4204348;28;20542;-44
2024/02/27 04:31:48;;;;;;;4.03;3.25;;;15.60;73.40;;;;;;4203747;28;20101;-44
2024/02/27 04:34:29;;;;;;;3.40;3.10;;;15.60;73.30;;;;;;4213209;27;20103;-43
2024/02/27 04:37:09;;;;;;;3.92;2.92;;;15.70;73.40;;;;;;4237326;27;20504;-46
2024/02/27 04:39:50;;;;;;;7.40;2.83;;;15.70;73.00;;;;;;4238019;27;20054;-44
2024/02/27 04:42:31;;;;;;;3.22;2.92;;;15.80;72.80;;;;;;4238268;27;20062;-44
2024/02/27 04:45:12;;;;;;;2.72;2.53;;;15.80;72.70;;;;;;4224847;27;20077;-44
2024/02/27 04:47:55;;;;;;;3.38;2.60;;;15.80;72.70;;;;;;4187086;28;20075;-45
2024/02/27 04:50:36;;;;;;;4.95;3.05;;;15.80;72.70;;;;;;4188448;28;20054;-44
2024/02/27 04:53:17;;;;;;;2.67;2.47;;;15.70;72.80;;;;;;4204169;28;20416;-45
2024/02/27 04:55:58;;;;;;;5.25;3.15;;;15.70;73.00;;;;;;4187656;28;20051;-42
2024/02/27 04:58:39;;;;;;;3.20;2.83;;;15.60;73.00;;;;;;4187248;28;20051;-43
2024/02/27 05:01:21;;;;;;;3.25;2.60;;;15.60;73.40;;;;;;4186551;28;20047;-44
2024/02/27 05:04:03;;;;;;;3.38;2.80;;;15.60;73.60;;;;;;4195154;28;20066;-43
2024/02/27 05:06:44;;;;;;;5.22;3.00;;;15.60;73.60;;;;;;4220517;27;20053;-44
2024/02/27 05:09:26;;;;;;;3.20;2.90;;;15.60;73.60;;;;;;4206618;27;20515;-44
2024/02/27 05:12:07;;;;;;;9.15;3.22;;;15.60;73.30;;;;;;4220713;28;20054;-43
2024/02/27 05:14:50;;;;;;;7.00;3.75;;;15.60;73.30;;;;;;4219792;27;20058;-42
2024/02/27 05:17:31;;;;;;;4.00;3.42;;;15.60;73.10;;;;;;4186924;28;20063;-43
2024/02/27 05:20:14;;;;;;;5.97;3.60;;;15.60;73.20;;;;;;4188267;28;20056;-49
2024/02/27 05:22:55;;;;;;;5.78;4.10;;;15.70;73.30;;;;;;4196804;28;20498;-45
2024/02/27 05:25:36;;;;;;;4.63;3.75;;;15.70;73.10;;;;;;4186467;28;20064;-42
2024/02/27 05:28:17;;;;;;;8.80;4.45;;;15.70;73.10;;;;;;4187657;28;20056;-43
2024/02/27 05:30:58;;;;;;;5.80;4.07;;;15.80;73.10;;;;;;4203388;28;20484;-47
2024/02/27 05:33:39;;;;;;;5.95;3.65;;;15.80;73.10;;;;;;4203932;28;20043;-47
2024/02/27 05:36:21;;;;;;;5.15;3.85;;;15.80;70.40;;;;;;4220271;28;20510;-52
2024/02/27 05:39:02;;;;;;;6.45;4.57;;;15.80;71.00;;;;;;4220622;28;20050;-46
2024/02/27 05:41:43;;;;;;;4.55;3.78;;;15.80;71.50;;;;;;4205791;28;20051;-46
2024/02/27 05:44:24;;;;;;;6.15;4.70;;;15.70;71.70;;;;;;4203694;28;20062;-49
2024/02/27 05:47:05;;;;;;;4.97;4.53;;;15.70;71.80;;;;;;4238906;27;20107;-48
2024/02/27 05:49:46;;;;;;;7.43;4.45;;;15.60;72.20;;;;;;4207284;28;20051;-44
2024/02/27 05:52:28;;;;;;;5.28;3.90;;;15.40;72.70;;;;;;4207231;28;20051;-43
2024/02/27 05:55:10;;;;;;;4.88;4.18;;;15.40;73.00;;;;;;4225107;27;20066;-43
2024/02/27 05:57:51;;;;;;;6.55;4.88;;;15.40;72.80;;;;;;4221003;27;20055;-45
2024/02/27 06:00:32;;;;;;;8.65;4.75;;;15.30;73.00;;;;;;4190623;28;20060;-43
2024/02/27 06:03:13;;;;;;;7.05;5.40;;;15.30;73.40;;;;;;4202604;27;20480;-43
2024/02/27 06:05:55;;;;;;;8.88;5.63;;;15.30;73.70;;;;;;4212268;27;20050;-43
2024/02/27 06:08:37;;;;;;;9.60;6.28;;;15.30;73.80;;;;;;4219354;27;20113;-43
2024/02/27 06:11:18;;;;;;;6.55;4.70;;;15.30;73.80;;;;;;4206946;28;20055;-44
2024/02/27 06:14:02;;;;;;;5.25;4.68;;;15.20;73.10;;;;;;4195062;28;20059;-43
2024/02/27 06:16:43;;;;;;;5.55;4.22;;;15.30;72.90;;;;;;4209227;27;20094;-44
2024/02/27 06:19:26;;;;;;;6.43;4.35;;;15.30;72.10;;;;;;4208009;28;20527;-43
2024/02/27 06:22:14;;;;;;;6.60;4.18;;;15.40;71.10;;;;;;4223176;27;20403;-45
2024/02/27 06:24:57;;;;;;;4.20;3.88;;;15.40;70.70;;;;;;4205805;28;20166;-45
2024/02/27 06:27:38;;;;;;;6.90;4.32;;;15.40;71.00;;;;;;4195714;28;20449;-44
2024/02/27 06:30:19;;;;;;;6.20;4.70;;;15.40;71.10;;;;;;4201947;28;20104;-44
2024/02/27 06:33:00;;;;;;;;;;;15.40;71.80;;;;;;4213527;27;20352;-50
2024/02/27 06:35:41;;;;;;;6.15;5.07;;;15.40;72.40;;;;;;4221090;28;20379;-46
2024/02/27 06:38:22;;;;;;;4.90;4.30;;;15.40;72.70;;;;;;4222387;27;20077;-49
2024/02/27 06:41:04;;;;;;;5.45;4.88;;;15.40;72.40;;;;;;4208579;28;20047;-46
2024/02/27 06:43:45;;;;;;;5.60;4.95;;;15.50;72.50;;;;;;4206029;28;20472;-51
2024/02/27 06:46:26;;;;;;;6.78;4.32;;;15.50;71.90;;;;;;4217720;28;20055;-47
2024/02/27 06:49:07;;;;;;;8.18;6.25;;;15.60;71.90;;;;;;4222107;27;20096;-48
2024/02/27 06:51:51;;;;;;;6.85;5.22;;;15.50;71.90;;;;;;4189663;28;20055;-43
2024/02/27 06:54:32;;;;;;;7.18;5.47;;;15.50;72.30;;;;;;4216700;27;20055;-46
2024/02/27 06:57:15;;;;;;;7.13;5.18;;;15.50;72.60;;;;;;4205434;28;20407;-48
2024/02/27 06:59:56;;;;;;;6.13;5.38;;;15.40;72.90;;;;;;4223958;27;20042;-47
2024/02/27 07:02:37;;;;;;;6.35;5.57;;;15.40;73.20;;;;;;4210659;27;20239;-48
2024/02/27 07:05:18;;;;;;;7.13;5.50;;;15.30;73.60;;;;;;4191765;28;20067;-46
2024/02/27 07:08:00;;;;;;;7.18;5.68;;;15.30;74.80;;;;;;4195180;28;20511;-46
2024/02/27 07:10:41;;;;;;;5.68;4.95;;;15.40;74.20;;;;;;4221754;27;20071;-48
2024/02/27 07:13:23;;;;;;;6.95;5.70;;;15.50;73.90;;;;;;4212580;27;20093;-46
2024/02/27 07:16:04;;;;;;;8.35;5.43;;;15.50;73.50;;;;;;4210078;28;20686;-47
2024/02/27 07:18:45;;;;;;;8.43;6.22;;;15.60;73.10;;;;;;4212933;27;20195;-47
2024/02/27 07:21:26;;;;;;;6.63;6.00;;;15.70;73.20;;;;;;4229517;27;20049;-46
2024/02/27 07:24:07;;;;;;;6.80;5.43;;;15.70;72.90;;;;;;4190862;28;20060;-48
2024/02/27 07:26:48;;;;;;;5.93;5.35;;;15.80;72.50;;;;;;4187503;28;20185;-47
2024/02/27 07:29:31;;;;;;;5.57;5.07;;;15.80;71.90;;;;;;4204056;28;20129;-48
2024/02/27 07:32:14;;;;;;;5.38;4.85;;;15.80;70.90;;;;;;4221113;27;20469;-47
2024/02/27 07:34:55;;;;;;;8.20;5.25;;;15.80;70.60;;;;;;4205879;28;20062;-49
2024/02/27 07:37:37;;;;;;;5.78;5.00;;;15.80;69.60;;;;;;4212949;27;20291;-45
2024/02/27 07:40:18;;;;;;;6.68;5.30;;;15.80;69.50;;;;;;4221781;27;20177;-44
2024/02/27 07:42:59;;;;;;;5.78;5.28;;;15.70;69.40;;;;;;4221317;28;20609;-45
2024/02/27 07:45:42;;;;;;;6.20;5.57;;;15.70;70.10;;;;;;4221286;27;20062;-48
2024/02/27 07:48:23;;;;;;;7.40;5.70;;;15.70;69.90;;;;;;4208526;27;20829;-48
2024/02/27 07:51:05;;;;;;;6.57;5.97;;;15.80;70.00;;;;;;4208231;27;20059;-47
2024/02/27 07:53:46;;;;;;;5.95;5.05;;;15.80;69.70;;;;;;4205208;28;20059;-48
2024/02/27 07:56:31;;;;;;;6.78;5.43;;;15.90;69.50;;;;;;4200910;28;20136;-46
2024/02/27 07:59:12;;;;;;;7.43;5.88;;;16.00;68.90;;;;;;4215782;28;20434;-46
2024/02/27 08:01:54;;;;;;;7.25;6.38;;;16.10;68.30;;;;;;4195488;28;20068;-47
2024/02/27 08:04:35;;;;;;;7.07;5.43;;;16.10;67.70;;;;;;4206418;28;20039;-48
2024/02/27 08:07:16;;;;;;;13.02;11.63;;;16.10;67.90;;;;;;4203614;28;20059;-48
2024/02/27 08:09:58;;;;;;;7.35;5.70;;;16.00;68.40;;;;;;4205304;28;20586;-46
2024/02/27 08:12:39;;;;;;;6.10;4.80;;;16.00;68.80;;;;;;4214241;28;20067;-46
2024/02/27 08:15:20;;;;;;;5.90;5.32;;;16.00;68.70;;;;;;4227851;27;20059;-46
2024/02/27 08:18:03;;;;;;;6.15;5.55;;;16.00;68.50;;;;;;4217166;27;20070;-46
2024/02/27 08:20:44;;;;;;;8.15;5.82;;;16.00;68.20;;;;;;4210656;27;20051;-47
2024/02/27 08:23:25;;;;;;;10.60;6.13;;;16.10;67.80;;;;;;4236467;27;20131;-46
2024/02/27 08:26:07;;;;;;;7.45;6.28;;;16.10;67.80;;;;;;4238210;27;20053;-46
2024/02/27 08:28:48;;;;;;;7.97;6.57;;;16.10;67.60;;;;;;4212837;27;20081;-49
2024/02/27 08:31:29;;;;;;;7.45;6.10;;;16.10;67.20;;;;;;4215953;27;20070;-47
2024/02/27 08:34:11;;;;;;;7.93;6.47;;;16.00;67.60;;;;;;4205489;27;20083;-47
2024/02/27 08:36:52;;;;;;;7.85;5.93;;;16.00;67.60;;;;;;4206274;28;20081;-48
2024/02/27 08:39:33;;;;;;;8.63;6.43;;;16.00;68.20;;;;;;4207460;28;20627;-49
2024/02/27 08:42:14;;;;;;;8.25;6.22;;;16.00;67.80;;;;;;4203502;28;20043;-47
2024/02/27 08:44:55;;;;;;;6.45;5.78;;;16.00;67.50;;;;;;4210568;28;20407;-52
2024/02/27 08:47:37;;;;;;;7.45;5.65;;;15.90;67.80;;;;;;4221321;27;20055;-43
2024/02/27 08:50:21;;;;;;;8.32;6.38;;;15.90;66.60;;;;;;4219382;28;20051;-43
2024/02/27 08:53:02;;;;;;;7.30;5.53;;;15.90;66.20;;;;;;4219475;28;20507;-45
2024/02/27 08:55:43;;;;;;;6.90;4.95;;;15.80;65.50;;;;;;4206700;27;20055;-44
2024/02/27 08:58:24;;;;;;;7.30;6.45;;;15.80;66.60;;;;;;4203552;28;20121;-43
2024/02/27 09:01:05;;;;;;;6.03;4.80;;;15.80;66.50;;;;;;4209905;28;20066;-44
2024/02/27 09:03:48;;;;;;;4.85;3.97;;;15.80;68.00;;;;;;4206374;27;20112;-45
2024/02/27 09:06:31;;;;;;;4.95;4.47;;;15.80;66.60;;;;;;4190157;28;20056;-43
2024/02/27 09:09:12;;;;;;;8.43;4.82;;;15.70;66.40;;;;;;4186725;28;20071;-43
2024/02/27 09:11:53;;;;;;;6.63;5.75;;;15.70;66.50;;;;;;4202238;28;20414;-45
2024/02/27 09:14:34;;;;;;;7.32;5.10;;;15.70;65.90;;;;;;4190005;28;20054;-44
2024/02/27 09:17:15;;;;;;;5.38;4.85;;;15.80;65.10;;;;;;4218784;27;20520;-46
2024/02/27 09:19:56;;;;;;;5.63;5.15;;;15.90;64.20;;;;;;4220204;28;20081;-46
2024/02/27 09:22:39;;;;;;;5.40;5.00;;;15.80;62.80;;;;;;4220294;28;20055;-43
2024/02/27 09:25:21;;;;;;;6.05;5.28;;;15.80;63.80;;;;;;4210944;28;20050;-44
2024/02/27 09:28:02;;;;;;;5.05;4.63;;;15.80;63.50;;;;;;4207285;27;20504;-43
2024/02/27 09:30:43;;;;;;;5.15;4.85;;;15.70;64.30;;;;;;4219719;27;20155;-43
2024/02/27 09:33:24;;;;;;;6.05;4.90;;;15.70;65.70;;;;;;4220038;27;20078;-45
2024/02/27 09:36:06;;;;;;;5.72;4.90;;;15.60;66.40;;;;;;4235383;27;20363;-45
2024/02/27 09:38:48;;;;;;;6.30;5.20;;;15.60;66.60;;;;;;4237684;27;20155;-49
2024/02/27 09:41:43;;;;;;;5.20;4.63;;;15.70;66.80;;;;;;4237542;27;20128;-44
2024/02/27 09:44:25;;;;;;;5.93;5.43;;;15.70;66.70;;;;;;4235484;27;20095;-43
2024/02/27 09:47:08;;;;;;;7.53;5.40;;;15.70;66.90;;;;;;4199771;27;20062;-45
2024/02/27 09:49:52;;;;;;;5.93;5.43;;;15.70;66.90;;;;;;4205042;27;20063;-45
2024/02/27 09:52:34;;;;;;;5.88;5.38;;;15.80;66.00;;;;;;4220831;28;20181;-49
2024/02/27 09:55:17;;;;;;;6.60;5.55;;;15.80;65.60;;;;;;4202834;28;20059;-43
2024/02/27 09:57:59;;;;;;;6.63;5.55;;;15.80;66.30;;;;;;4235832;27;20054;-43
2024/02/27 10:00:40;;;;;;;6.05;5.45;;;15.80;65.50;;;;;;4237019;27;20050;-44
2024/02/27 10:03:23;;;;;;;6.18;5.57;;;15.80;66.00;;;;;;4237548;27;20070;-46
2024/02/27 10:06:06;;;;;;;6.93;6.32;;;15.80;66.10;;;;;;4220348;27;20057;-44
2024/02/27 10:08:53;;;;;;;6.38;5.78;;;15.80;65.90;;;;;;4227916;27;20131;-47
2024/02/27 10:11:37;;;;;;;6.68;5.57;;;15.80;65.90;;;;;;4236762;27;20399;-45
2024/02/27 10:14:29;;;;;;;6.57;5.82;;;15.80;66.30;;;;;;4234340;27;20051;-47
2024/02/27 10:17:10;;;;;;;;;;;15.80;65.90;;;;;;4185793;28;20171;-50
2024/02/27 10:19:51;;;;;;;6.85;6.15;;;15.90;66.30;;;;;;4210149;27;19930;-48
2024/02/27 10:22:32;;;;;;;7.07;6.40;;;15.90;66.20;;;;;;4209110;27;20499;-49
2024/02/27 10:25:14;;;;;;;6.70;6.07;;;15.90;66.10;;;;;;4204913;27;20598;-48
2024/02/27 10:27:59;;;;;;;7.78;6.40;;;15.90;66.00;;;;;;4203948;28;20152;-49
2024/02/27 10:30:40;;;;;;;6.95;6.35;;;15.90;65.10;;;;;;4222622;27;20050;-48
2024/02/27 10:33:23;;;;;;;6.70;6.07;;;15.90;65.30;;;;;;4221748;27;20051;-48
2024/02/27 10:36:06;;;;;;;6.93;6.32;;;15.90;65.00;;;;;;4222450;27;20066;-48
2024/02/27 10:38:47;;;;;;;7.60;6.85;;;15.90;65.30;;;;;;4221386;27;20047;-51
2024/02/27 10:41:29;;;;;;;6.45;5.80;;;15.90;65.50;;;;;;4189913;28;20097;-51
2024/02/27 10:44:12;;;;;;;7.70;6.85;;;15.80;66.50;;;;;;4189750;28;20144;-52
2024/02/27 10:46:56;;;;;;;7.03;6.43;;;15.80;65.90;;;;;;4238822;27;20204;-49
2024/02/27 10:49:37;;;;;;;8.23;6.10;;;15.80;64.20;;;;;;4233638;27;20055;-48
2024/02/27 10:52:20;;;;;;;7.13;6.50;;;15.80;65.30;;;;;;4222314;27;20128;-48
2024/02/27 10:55:02;;;;;;;6.55;5.72;;;15.80;65.60;;;;;;4224873;27;20128;-49
2024/02/27 10:57:44;;;;;;;6.82;6.13;;;15.80;64.90;;;;;;4235872;27;20054;-48
2024/02/27 11:00:27;;;;;;;6.00;5.50;;;15.80;65.50;;;;;;4236065;27;20097;-49
2024/02/27 11:03:13;;;;;;;5.30;4.85;;;15.80;63.70;;;;;;4234810;27;20486;-46
2024/02/27 11:05:55;;;;;;;6.13;5.63;;;15.70;63.30;;;;;;4224759;27;20059;-49
2024/02/27 11:08:37;;;;;;;6.55;5.95;;;15.70;63.80;;;;;;4226041;27;20411;-49
2024/02/27 11:11:18;;;;;;;6.30;5.70;;;15.70;63.50;;;;;;4205469;28;20059;-42
2024/02/27 11:14:05;;;;;;;6.40;5.80;;;15.70;63.00;;;;;;4205312;28;20109;-43
2024/02/27 11:16:51;;;;;;;7.30;6.70;;;15.70;63.80;;;;;;4198826;28;20186;-43
2024/02/27 11:19:35;;;;;;;7.65;6.38;;;15.60;62.90;;;;;;4210376;28;20692;-42
2024/02/27 11:22:18;;;;;;;7.50;6.80;;;15.60;63.10;;;;;;4232045;27;20058;-42
2024/02/27 11:24:59;;;;;;;7.07;6.38;;;15.60;65.40;;;;;;4239233;27;20054;-44
2024/02/27 11:27:41;;;;;;;6.25;5.65;;;15.50;63.70;;;;;;4238602;27;20050;-42
2024/02/27 11:30:24;;;;;;;7.28;6.57;;;15.60;64.90;;;;;;4226620;27;20133;-41
2024/02/27 11:33:09;;;;;;;6.65;5.80;;;15.60;63.70;;;;;;4235816;27;20053;-42
2024/02/27 11:35:51;;;;;;;7.72;6.93;;;15.80;65.10;;;;;;4237209;27;20072;-42
2024/02/27 11:38:35;;;;;;;7.78;6.70;;;15.80;64.30;;;;;;4227090;27;20058;-42
2024/02/27 11:41:21;;;;;;;10.10;8.52;;;15.90;64.70;;;;;;4222465;27;20107;-42
2024/02/27 11:44:02;;;;;;;8.52;7.60;;;15.90;65.10;;;;;;4236285;27;20136;-42
2024/02/27 11:46:44;;;;;;;7.68;6.85;;;16.00;64.90;;;;;;4239158;27;20046;-42
2024/02/27 11:49:40;;;;;;;8.63;6.88;;;16.00;64.90;;;;;;4231687;27;20054;-45
2024/02/27 11:52:21;;;;;;;8.27;7.25;;;16.00;64.70;;;;;;4220216;27;20549;-42
2024/02/27 11:55:09;;;;;;;8.13;7.33;;;16.00;65.20;;;;;;4219735;28;20508;-43
2024/02/27 11:57:52;;;;;;;7.55;6.78;;;16.00;65.20;;;;;;4222041;27;20059;-45
2024/02/27 12:00:33;;;;;;;10.38;8.15;;;16.00;64.60;;;;;;4203996;28;20058;-42
2024/02/27 12:03:15;;;;;;;8.10;7.30;;;16.00;63.70;;;;;;4189470;28;20059;-41
2024/02/27 12:06:05;;;;;;;9.02;7.25;;;15.90;64.20;;;;;;4189730;28;20345;-44
2024/02/27 12:08:47;;;;;;;8.13;7.30;;;15.90;64.50;;;;;;4192466;28;20108;-42
2024/02/27 12:11:29;;;;;;;8.55;7.68;;;15.90;64.20;;;;;;4220454;27;20063;-42
2024/02/27 12:14:10;;;;;;;8.00;7.20;;;15.80;62.60;;;;;;4204000;28;20125;-45
2024/02/27 12:16:51;;;;;;;8.10;7.22;;;15.80;62.80;;;;;;4229716;27;20050;-44
2024/02/27 12:19:32;;;;;;;10.02;7.97;;;15.70;64.10;;;;;;4215246;28;20104;-46
2024/02/27 12:22:15;;;;;;;;;;;15.70;64.60;;;;;;4217290;27;20038;-43
2024/02/27 12:24:58;;;;;;;9.05;7.72;;;15.70;65.20;;;;;;4195971;28;19931;-43
2024/02/27 12:27:39;;;;;;;8.68;7.72;;;15.80;65.30;;;;;;4211171;28;20139;-43
2024/02/27 12:30:22;;;;;;;8.35;6.72;;;15.80;64.90;;;;;;4220652;27;20058;-45
2024/02/27 12:33:06;;;;;;;8.55;7.05;;;15.90;64.50;;;;;;4237987;27;20095;-45
2024/02/27 12:35:47;;;;;;;8.05;7.25;;;15.80;64.00;;;;;;4237872;27;20092;-44
2024/02/27 12:38:33;;;;;;;9.35;8.40;;;15.80;64.30;;;;;;4210020;27;20056;-49
2024/02/27 12:41:14;;;;;;;8.38;7.50;;;15.90;63.00;;;;;;4206707;27;20046;-50
2024/02/27 12:43:55;;;;;;;10.27;7.25;;;15.90;62.30;;;;;;4193783;28;20067;-48
2024/02/27 12:46:36;;;;;;;9.45;8.18;;;15.90;63.10;;;;;;4203791;28;20848;-45
2024/02/27 12:49:17;;;;;;;7.82;7.03;;;15.90;63.70;;;;;;4219403;28;20431;-46
2024/02/27 12:51:59;;;;;;;8.73;6.88;;;15.80;64.40;;;;;;4209207;27;20051;-42
2024/02/27 12:54:41;;;;;;;10.57;7.80;;;15.80;64.80;;;;;;4198088;28;20129;-42
2024/02/27 12:57:22;;;;;;;10.68;8.10;;;15.80;64.90;;;;;;4219916;28;20062;-42
2024/02/27 13:00:04;;;;;;;8.45;7.65;;;15.80;65.70;;;;;;4215989;28;20123;-42
2024/02/27 13:02:48;;;;;;;8.80;7.75;;;15.80;66.50;;;;;;4202091;28;20120;-42
2024/02/27 13:05:29;;;;;;;7.82;6.97;;;15.80;66.30;;;;;;4193170;28;20079;-41
2024/02/27 13:08:10;;;;;;;8.52;7.45;;;15.90;65.60;;;;;;4203484;28;20047;-42
2024/02/27 13:10:52;;;;;;;7.97;7.10;;;16.00;65.80;;;;;;4196836;28;20496;-43
2024/02/27 13:13:34;;;;;;;10.40;7.90;;;16.10;65.90;;;;;;4187129;28;20052;-42
2024/02/27 13:16:16;;;;;;;9.57;8.07;;;16.10;66.50;;;;;;4187189;27;20125;-41
2024/02/27 13:18:58;;;;;;;9.57;8.45;;;16.20;65.20;;;;;;4197250;28;20172;-46
2024/02/27 13:21:40;;;;;;;9.48;8.32;;;16.20;62.70;;;;;;4210566;28;20141;-46
2024/02/27 13:24:21;;;;;;;11.73;8.93;;;16.20;64.10;;;;;;4219779;28;20049;-48
2024/02/27 13:27:04;;;;;;;9.57;8.57;;;16.20;61.70;;;;;;4188435;28;20052;-47
2024/02/27 13:29:46;;;;;;;10.07;8.32;;;16.20;63.80;;;;;;4203242;28;20084;-45
2024/02/27 13:32:27;;;;;;;11.20;8.77;;;16.30;63.80;;;;;;4190296;28;20121;-45
2024/02/27 13:35:08;;;;;;;9.88;7.80;;;16.30;64.00;;;;;;4224970;27;20053;-45
2024/02/27 13:37:50;;;;;;;9.60;7.75;;;16.30;64.50;;;;;;4231875;27;20057;-45
2024/02/27 13:40:30;;;;;;;;;;;16.40;64.80;;;;;;4235233;27;20172;-49
2024/02/27 13:43:13;;;;;;;11.00;8.13;;;16.40;64.60;;;;;;4219571;28;19931;-46
2024/02/27 13:45:54;;;;;;;9.57;7.47;;;16.40;64.50;;;;;;4232520;27;20400;-41
2024/02/27 13:48:35;;;;;;;10.23;8.30;;;16.30;63.20;;;;;;4224259;27;20042;-46
2024/02/27 13:51:17;;;;;;;10.50;8.25;;;16.30;63.90;;;;;;4214924;28;20043;-46
2024/02/27 13:53:58;;;;;;;9.00;8.00;;;16.30;63.80;;;;;;4188002;28;20101;-48
2024/02/27 13:56:40;;;;;;;9.23;8.05;;;16.20;63.10;;;;;;4188659;28;20050;-46
2024/02/27 13:59:22;;;;;;;10.68;8.15;;;16.20;62.90;;;;;;4205201;27;20055;-46
2024/02/27 14:02:04;;;;;;;9.52;7.95;;;16.10;63.10;;;;;;4207950;28;20158;-46
2024/02/27 14:04:45;;;;;;;8.98;8.02;;;16.10;63.30;;;;;;4207045;27;20125;-40